Latest Weather Observations for Adelaide Airport

IDS60901

Issued at 5:51 pm CST Tuesday 20 August 2019 (issued every 10 minutes, with the page automatically refreshed every 10 minutes)

About weather observations | Map of Adelaide area stations | Latest observations for Adelaide area | Other Formats
Station Details ID: 023034 Name: ADELAIDE AIRPORT Lat: -34.95 Lon: 138.52 Height: 2.0 m
Data from the previous 72 hours. | See also: Recent months at Adelaide Airport
Date/Time
CST
Temp
°C
App
Temp
°C
Dew
Point
°C
Rel
Hum
%
Delta-T
°C
Wind Press
QNH
hPa
Press
MSL
hPa
Rain since
9am
mm
Dir  Spd
km/h
Gust
km/h
Spd
kts
Gust
kts
20/05:30pm 13.1 10.5 10.8 86 1.2 WSW 15 19 8 10 1030.3 1030.3 0.2
20/05:00pm 13.2 10.1 10.3 82 1.5 W 17 20 9 11 1030.4 1030.4 0.0
20/04:30pm 13.1 9.6 11.0 87 1.1 WSW 20 30 11 16 1030.4 1030.4 0.0
20/04:17pm 13.3 9.7 10.4 82 1.5 W 20 26 11 14 1030.5 1030.5 0.0
20/04:00pm 13.7 9.5 9.8 77 2.0 WNW 22 30 12 16 1030.4 1030.4 0.0
20/03:30pm 13.6 9.2 10.5 81 1.6 NW 24 32 13 17 1030.5 1030.5 0.0
20/03:00pm 13.9 8.7 10.2 78 1.9 WNW 28 33 15 18 1030.6 1030.6 0.0
20/02:30pm 14.2 10.2 10.3 77 2.0 WNW 22 30 12 16 1030.7 1030.7 0.0
20/02:00pm 13.9 9.4 10.2 78 1.9 WNW 24 30 13 16 1031.0 1031.0 0.0
20/01:30pm 14.0 9.6 10.3 78 1.9 WNW 24 30 13 16 1031.1 1031.1 0.0
20/01:00pm 13.9 10.2 10.2 78 1.9 WNW 20 28 11 15 1031.5 1031.5 0.0
20/12:30pm 13.8 10.1 10.3 79 1.8 NW 20 28 11 15 1031.8 1031.8 0.0
20/12:00pm 14.8 11.8 11.8 82 1.6 WNW 19 26 10 14 1032.0 1032.0 0.0
20/11:30am 13.6 10.3 11.5 87 1.1 NW 20 26 11 14 1032.5 1032.5 0.0
20/11:08am 12.7 8.5 11.2 91 0.8 WNW 24 32 13 17 1032.6 1032.6 0.0
20/11:00am 13.1 8.1 10.8 86 1.2 WNW 28 35 15 19 1032.6 1032.6 0.0
20/10:30am 13.8 9.4 10.3 79 1.8 NW 24 30 13 16 1032.4 1032.4 0.0
20/10:00am 13.4 9.1 10.7 84 1.4 NW 24 32 13 17 1032.4 1032.4 0.0
20/09:30am 13.3 9.0 10.6 84 1.4 NW 24 32 13 17 1032.3 1032.3 0.0
20/09:00am 12.7 7.9 10.2 85 1.3 NW 26 32 14 17 1032.2 1032.2 0.2
20/08:30am 12.3 8.6 10.1 86 1.1 NW 20 28 11 15 1031.9 1031.9 0.2
20/08:00am 11.9 8.3 9.7 86 1.1 WNW 19 26 10 14 1031.6 1031.6 0.2
20/07:30am 11.7 8.0 9.5 86 1.1 WNW 19 26 10 14 1031.3 1031.3 0.2
20/07:00am 11.5 8.2 9.5 87 1.0 WNW 17 24 9 13 1031.1 1031.1 0.2
20/06:30am 10.8 8.1 9.0 89 0.9 WNW 13 17 7 9 1030.7 1030.7 0.2
20/06:00am 11.3 8.2 8.9 85 1.2 WNW 15 20 8 11 1030.6 1030.6 0.2
20/05:30am 11.8 7.9 8.5 80 1.6 WNW 19 24 10 13 1030.8 1030.8 0.2
20/05:00am 11.6 8.4 8.5 81 1.5 W 15 19 8 10 1030.7 1030.7 0.2
20/04:30am 11.6 7.9 8.1 79 1.7 W 17 20 9 11 1030.5 1030.5 0.2
20/04:00am 11.7 8.1 8.4 80 1.6 W 17 22 9 12 1030.6 1030.6 0.2
20/03:30am 11.5 7.9 8.2 80 1.6 W 17 26 9 14 1030.7 1030.7 0.2
20/03:00am 11.4 7.5 8.5 82 1.4 WNW 19 24 10 13 1031.2 1031.2 0.2
20/02:30am 11.6 6.8 9.0 84 1.3 WNW 24 32 13 17 1031.4 1031.4 0.2
20/02:00am 11.5 8.0 8.9 84 1.3 WNW 17 19 9 10 1031.6 1031.6 0.2
20/01:30am 11.2 8.9 9.0 86 1.1 WNW 11 13 6 7 1031.8 1031.8 0.2
20/01:00am 11.1 8.3 8.6 84 1.2 WNW 13 17 7 9 1032.0 1032.0 0.2
20/12:30am 11.1 8.3 8.6 84 1.2 WNW 13 17 7 9 1032.0 1032.0 0.2
20/12:00am 11.0 6.7 7.7 80 1.6 WSW 20 26 11 14 1032.0 1032.0 0.2
 
Date/Time
CST
Temp
°C
App
Temp
°C
Dew
Point
°C
Rel
Hum
%
Delta-T
°C
Wind Press
QNH
hPa
Press
MSL
hPa
Rain since
9am
mm
Dir  Spd
km/h
Gust
km/h
Spd
kts
Gust
kts
19/11:30pm 10.3 5.5 8.9 91 0.7 W 24 35 13 19 1031.9 1031.9 0.2
19/11:22pm 10.3 4.8 9.1 92 0.6 W 28 46 15 25 1032.0 1032.0 0.2
19/11:17pm 10.5 6.5 8.9 90 0.8 W 20 39 11 21 1032.1 1032.1 0.2
19/11:00pm 11.1 7.5 8.4 83 1.3 W 17 24 9 13 1032.1 1032.1 0.0
19/10:30pm 11.0 5.9 9.2 89 0.9 SW 26 32 14 17 1032.0 1032.0 0.0
19/10:00pm 11.3 7.2 8.0 80 1.6 W 19 26 10 14 1031.9 1031.9 0.0
19/09:30pm 11.4 7.4 8.1 80 1.6 WSW 19 24 10 13 1031.8 1031.8 0.0
19/09:00pm 11.8 7.5 7.9 77 1.9 W 20 30 11 16 1031.6 1031.6 0.0
19/08:30pm 11.8 7.1 7.9 77 1.9 WSW 22 28 12 15 1031.6 1031.6 0.0
19/08:00pm 11.9 7.0 7.1 72 2.3 WSW 22 28 12 15 1031.3 1031.3 0.0
19/07:30pm 11.9 6.9 6.6 70 2.5 WSW 22 32 12 17 1031.1 1031.1 0.0
19/07:00pm 11.9 7.6 6.8 71 2.4 WSW 19 28 10 15 1030.7 1030.7 0.0
19/06:30pm 12.0 9.2 6.9 71 2.4 WSW 11 19 6 10 1030.5 1030.5 0.0
19/06:00pm 11.8 9.4 6.9 72 2.3 SW 9 11 5 6 1030.3 1030.3 0.0
19/05:30pm 11.9 9.5 7.1 72 2.3 SW 9 13 5 7 1030.0 1030.0 0.0
19/05:00pm 12.1 8.8 6.6 69 2.6 SW 13 17 7 9 1029.8 1029.8 0.0
19/04:30pm 12.0 8.3 6.5 69 2.6 SW 15 19 8 10 1029.5 1029.5 0.0
19/04:00pm 12.4 8.3 6.0 65 3.0 SW 17 24 9 13 1029.3 1029.3 0.0
19/03:30pm 12.5 8.1 6.6 67 2.8 SW 19 24 10 13 1029.2 1029.2 0.0
19/03:00pm 12.1 7.4 5.9 66 2.9 WSW 20 33 11 18 1029.3 1029.3 0.0
19/02:30pm 12.7 8.4 5.1 60 3.5 SW 17 22 9 12 1029.1 1029.1 0.0
19/02:00pm 11.5 7.2 6.8 73 2.2 S 19 28 10 15 1029.1 1029.1 0.0
19/01:30pm 12.7 7.1 5.6 62 3.3 WSW 24 30 13 16 1029.0 1029.0 0.0
19/01:00pm 12.8 7.2 5.2 60 3.5 WSW 24 30 13 16 1029.1 1029.1 0.0
19/12:30pm 12.7 7.0 5.1 60 3.5 SW 24 30 13 16 1029.1 1029.1 0.0
19/12:00pm 12.7 6.8 5.8 63 3.2 SW 26 33 14 18 1029.0 1029.0 0.0
19/11:30am 10.8 4.9 6.0 72 2.2 SW 26 35 14 19 1029.1 1029.1 0.0
19/11:00am 12.9 6.2 5.6 61 3.4 SW 30 37 16 20 1028.9 1028.9 0.0
19/10:30am 12.1 5.2 4.8 61 3.3 SW 30 35 16 19 1028.5 1028.5 0.0
19/10:00am 12.1 5.2 4.6 60 3.4 SW 30 37 16 20 1028.3 1028.3 0.0
19/09:30am 11.1 4.9 4.1 62 3.1 SW 26 35 14 19 1027.9 1027.9 0.0
19/09:00am 10.9 4.3 4.1 63 3.0 SW 28 35 15 19 1027.4 1027.4 7.8
19/08:30am 10.9 4.6 3.6 60 3.2 SW 26 35 14 19 1026.8 1026.8 7.8
19/08:00am 10.4 4.8 3.2 61 3.1 SW 22 32 12 17 1026.2 1026.2 7.8
19/07:30am 10.0 3.2 3.0 62 3.0 SW 28 37 15 20 1025.5 1025.5 7.8
19/07:00am 9.7 2.9 3.2 64 2.8 SW 28 37 15 20 1025.1 1025.1 7.8
19/06:30am 9.7 2.6 3.4 65 2.7 SW 30 41 16 22 1024.5 1024.5 7.8
19/06:00am 10.1 2.4 2.3 58 3.3 SW 32 46 17 25 1024.1 1024.1 7.8
19/05:30am 9.7 1.9 2.0 58 3.2 SW 32 41 17 22 1023.7 1023.7 7.8
19/05:00am 9.8 4.0 2.2 59 3.2 SW 22 32 12 17 1023.4 1023.4 7.8
19/04:30am 9.5 2.6 2.6 62 2.9 SW 28 37 15 20 1023.2 1023.2 7.8
19/04:00am 9.8 2.0 1.6 56 3.4 SW 32 44 17 24 1023.0 1023.0 7.8
19/03:30am 9.7 1.8 0.8 54 3.6 SW 32 41 17 22 1023.0 1023.0 7.8
19/03:00am 9.7 1.7 1.5 56 3.4 SW 33 46 18 25 1022.7 1022.7 7.8
19/02:30am 9.5 1.6 2.1 60 3.1 SW 33 46 18 25 1022.6 1022.6 7.8
19/02:00am 9.2 1.3 2.3 62 2.9 SW 33 44 18 24 1022.5 1022.5 7.8
19/01:30am 9.5 1.6 2.1 60 3.1 SW 33 44 18 24 1022.5 1022.5 7.8
19/01:00am 9.4 1.5 2.0 60 3.1 SW 33 43 18 23 1022.2 1022.2 7.8
19/12:30am 9.4 1.3 3.4 66 2.6 SW 35 46 19 25 1022.0 1022.0 7.8
19/12:00am 9.4 1.1 2.2 61 3.0 SW 35 46 19 25 1021.6 1021.6 7.8
 
Date/Time
CST
Temp
°C
App
Temp
°C
Dew
Point
°C
Rel
Hum
%
Delta-T
°C
Wind Press
QNH
hPa
Press
MSL
hPa
Rain since
9am
mm
Dir  Spd
km/h
Gust
km/h
Spd
kts
Gust
kts
18/11:30pm 9.4 0.9 3.4 66 2.6 SW 37 50 20 27 1021.2 1021.2 7.8
18/11:12pm 9.6 1.4 2.8 62 2.9 SW 35 54 19 29 1021.2 1021.2 7.8
18/11:00pm 9.4 1.8 3.1 65 2.7 SW 32 41 17 22 1021.0 1021.0 7.8
18/10:30pm 9.2 1.9 2.6 63 2.8 SW 30 41 16 22 1020.7 1020.7 7.8
18/10:00pm 9.2 0.7 3.1 65 2.6 SW 37 52 20 28 1020.4 1020.4 7.8
18/09:30pm 9.8 1.9 2.2 59 3.2 SW 33 48 18 26 1020.0 1020.0 7.8
18/09:00pm 9.8 0.7 1.6 56 3.4 SW 39 52 21 28 1019.8 1019.8 7.8
18/08:30pm 9.9 1.2 2.3 59 3.2 SW 37 50 20 27 1019.2 1019.2 7.8
18/08:00pm 9.9 2.4 4.5 69 2.4 WSW 33 43 18 23 1018.5 1018.5 7.8
18/07:30pm 8.8 2.2 1.8 61 2.9 W 26 37 14 20 1018.0 1018.0 7.8
18/07:26pm 8.6 0.9 2.1 63 2.7 W 32 50 17 27 1017.8 1017.8 7.8
18/07:00pm 8.3 -1.2 3.9 74 1.9 WSW 43 65 23 35 1017.3 1017.3 7.8
18/06:50pm 9.1 1.5 4.1 71 2.2 WSW 33 52 18 28 1017.0 1017.0 7.6
18/06:30pm 10.9 2.7 2.8 57 3.5 WSW 35 48 19 26 1016.3 1016.3 7.0
18/06:00pm 9.6 3.3 5.7 76 1.8 WNW 28 35 15 19 1015.9 1015.9 7.0
18/05:30pm 9.3 3.1 6.3 81 1.4 WNW 28 35 15 19 1015.7 1015.7 6.8
18/05:00pm 9.0 1.9 5.7 80 1.5 WNW 32 41 17 22 1015.3 1015.3 6.8
18/04:30pm 8.6 3.4 5.3 80 1.5 WNW 22 32 12 17 1014.7 1014.7 6.8
18/04:18pm 7.9 3.9 5.0 82 1.3 WNW 15 24 8 13 1014.4 1014.4 6.8
18/04:10pm 8.4 2.5 3.8 73 2.0 WNW 24 41 13 22 1014.1 1014.1 6.6
18/04:03pm 7.8 -0.5 4.4 79 1.5 W 37 56 20 30 1014.7 1014.7 6.6
18/04:00pm 7.9 -0.9 5.4 84 1.1 W 41 56 22 30 1014.9 1014.9 6.2
18/03:52pm 7.6 -2.6 5.4 86 1.0 W 48 67 26 36 1014.8 1014.8 5.6
18/03:45pm 8.2 -0.8 6.2 87 0.9 WNW 43 70 23 38 1014.5 1014.5 5.2
18/03:40pm 8.9 1.8 5.6 80 1.5 WNW 32 56 17 30 1014.5 1014.5 5.0
18/03:30pm 9.2 3.5 5.0 75 1.9 WNW 24 39 13 21 1013.9 1013.9 4.8
18/03:13pm 9.5 3.0 4.6 71 2.2 WNW 28 48 15 26 1013.5 1013.5 4.8
18/03:00pm 9.2 3.1 6.4 83 1.3 W 28 37 15 20 1013.4 1013.4 4.8
18/02:44pm 8.4 -1.0 5.3 81 1.4 WNW 44 61 24 33 1013.3 1013.3 4.4
18/02:30pm 9.2 1.8 6.6 84 1.2 WNW 35 57 19 31 1012.8 1012.8 3.8
18/02:27pm 9.2 1.8 6.8 85 1.1 NW 35 57 19 31 1012.7 1012.7 3.6
18/02:20pm 8.9 1.6 4.6 74 1.9 WNW 32 50 17 27 1012.5 1012.5 3.0
18/02:00pm 8.9 0.5 5.8 81 1.4 W 39 57 21 31 1012.4 1012.4 2.2
18/01:53pm 10.1 2.8 4.5 68 2.5 WNW 32 54 17 29 1012.4 1012.4 2.0
18/01:30pm 10.4 4.3 4.9 69 2.5 W 26 41 14 22 1012.2 1012.2 2.0
18/01:00pm 10.4 5.4 4.6 67 2.6 WNW 20 28 11 15 1012.2 1012.2 2.0
18/12:30pm 9.4 3.2 4.2 70 2.3 W 26 35 14 19 1012.4 1012.4 2.0
18/12:17pm 8.7 2.3 5.1 78 1.6 WSW 28 39 15 21 1012.5 1012.5 2.0
18/12:00pm 7.9 -4.1 4.5 79 1.5 WSW 57 72 31 39 1012.8 1012.8 1.8
18/11:57am 7.8 -3.6 4.9 82 1.3 WSW 54 72 29 39 1012.8 1012.8 1.8
18/11:52am 8.0 -1.3 5.1 82 1.3 WSW 43 70 23 38 1012.7 1012.7 1.2
18/11:46am 10.6 3.4 4.9 68 2.6 W 32 57 17 31 1012.3 1012.3 0.8
18/11:30am 12.0 4.9 5.3 63 3.1 W 32 43 17 23 1012.4 1012.4 0.8
18/11:00am 11.3 4.1 5.2 66 2.8 W 32 39 17 21 1012.2 1012.2 0.8
18/10:30am 10.4 3.1 5.6 72 2.2 W 33 48 18 26 1012.0 1012.0 0.8
18/10:25am 10.1 1.8 6.2 77 1.8 WSW 39 52 21 28 1011.9 1011.9 0.8
18/10:14am 8.5 -1.5 6.1 85 1.1 WSW 48 76 26 41 1012.2 1012.2 0.8
18/10:07am 7.7 -2.3 6.2 90 0.7 WSW 48 80 26 43 1012.3 1012.3 0.8
18/10:03am 8.9 0.9 5.6 80 1.5 W 37 70 20 38 1012.2 1012.2 0.0
18/10:00am 10.6 3.2 6.6 76 1.9 W 35 46 19 25 1011.7 1011.7 0.0
18/09:30am 11.9 4.2 5.4 64 3.0 WNW 35 50 19 27 1011.3 1011.3 0.0
18/09:00am 11.4 4.3 5.6 67 2.7 WNW 32 46 17 25 1011.1 1011.1 1.4
18/08:35am 11.1 3.3 5.0 66 2.8 W 35 54 19 29 1011.2 1011.2 1.4
18/08:30am 11.1 2.6 5.0 66 2.8 W 39 54 21 29 1011.1 1011.1 1.4
18/08:00am 11.2 1.1 5.6 68 2.6 W 48 69 26 37 1010.9 1010.9 1.4
18/07:47am 11.7 3.4 5.9 67 2.7 WNW 39 57 21 31 1010.6 1010.6 1.4
18/07:30am 11.6 4.0 5.6 66 2.8 WNW 35 44 19 24 1010.3 1010.3 1.4
18/07:01am 11.9 4.9 6.9 71 2.4 WNW 33 61 18 33 1010.0 1010.0 1.4
18/07:00am 11.9 5.1 7.1 72 2.3 WNW 32 48 17 26 1010.0 1010.0 1.4
18/06:30am 12.2 5.6 8.6 78 1.8 NW 33 48 18 26 1009.7 1009.7 1.4
18/06:00am 12.3 7.0 8.3 76 2.0 NW 26 35 14 19 1009.5 1009.5 1.4
18/05:30am 12.5 7.3 8.7 77 1.9 NW 26 39 14 21 1009.5 1009.5 1.4
18/05:00am 12.7 8.4 9.3 80 1.7 NW 22 32 12 17 1009.7 1009.7 1.4
18/04:30am 12.7 9.0 10.2 85 1.3 NW 20 28 11 15 1009.4 1009.4 1.4
18/04:00am 12.9 8.6 10.6 86 1.2 NW 24 32 13 17 1009.5 1009.5 1.4
18/03:30am 12.8 10.3 11.1 89 0.9 NNW 15 19 8 10 1009.5 1009.5 1.4
18/03:00am 12.8 10.0 11.5 92 0.7 NW 17 24 9 13 1009.5 1009.5 1.2
18/02:30am 13.3 11.5 10.8 85 1.3 NNW 11 13 6 7 1009.5 1009.5 0.4
18/02:00am 14.1 10.9 9.8 75 2.2 NNW 17 22 9 12 1009.4 1009.4 0.0
18/01:30am 14.5 11.4 8.8 68 2.9 NNW 15 20 8 11 1009.5 1009.5 0.0
18/01:00am 11.8 9.8 8.8 82 1.5 NNE 9 11 5 6 1009.6 1009.6 0.0
18/12:30am 13.0 12.8 9.0 77 2.0 CALM 0 0 0 0 1009.4 1009.4 0.0
18/12:00am 14.2 13.6 8.9 70 2.7 N 2 7 1 4 1009.2 1009.2 0.0
 
Date/Time
CST
Temp
°C
App
Temp
°C
Dew
Point
°C
Rel
Hum
%
Delta-T
°C
Wind Press
QNH
hPa
Press
MSL
hPa
Rain since
9am
mm
Dir  Spd
km/h
Gust
km/h
Spd
kts
Gust
kts
17/11:30pm 14.8 11.7 8.7 67 3.1 NE 15 15 8 8 1009.3 1009.3 0.0
17/11:00pm 15.5 12.7 8.6 63 3.5 N 13 15 7 8 1009.5 1009.5 0.0
17/10:30pm 16.1 13.3 8.4 60 3.9 NNW 13 15 7 8 1009.6 1009.6 0.0
17/10:00pm 15.3 12.9 8.6 64 3.4 NNW 11 17 6 9 1009.8 1009.8 0.0
17/09:30pm 15.4 13.4 8.7 64 3.4 NNW 9 15 5 8 1010.1 1010.1 0.0
17/09:00pm 16.0 13.6 8.5 61 3.8 NNE 11 11 6 6 1010.2 1010.2 0.0
17/08:30pm 15.7 13.0 8.9 64 3.5 NE 13 15 7 8 1010.2 1010.2 0.0
17/08:00pm 16.3 13.2 8.7 60 3.9 NNE 15 17 8 9 1010.8 1010.8 0.0
17/07:30pm 16.6 13.1 8.6 59 4.1 NNE 17 20 9 11 1010.9 1010.9 0.0
17/07:00pm 16.7 12.8 8.5 58 4.2 NNE 19 26 10 14 1010.7 1010.7 0.0
17/06:30pm 17.0 12.8 8.4 57 4.4 NNE 20 28 11 15 1010.7 1010.7 0.0
17/06:00pm 17.0 12.1 8.4 57 4.4 NE 24 30 13 16 1010.8 1010.8 0.0

Latest Capital City Observations: Canberra | Sydney | Melbourne | Brisbane | Adelaide | Perth | Hobart | Darwin

Other formats

Comma delimited format used in spreadsheet applications
http://www.bom.gov.au/fwo/IDS60901/IDS60901.94672.axf

JavaScript Object Notation format (JSON) in row-major order
http://www.bom.gov.au/fwo/IDS60901/IDS60901.94672.json

Data quality

Most of these data are generated automatically and are frequently updated. Quality checks on data are not normally performed. It is possible for incorrect values to appear. Refer to information at About Latest Weather Observations and please check the disclaimer before using these data.